CMA CGM Butterfly — A8NO8 — position and weather

sailwx.info

Track history (hours):
 
Tides and Currents Weather Stations Pressure Air Temp Water Temp Dewpoint Dewpoint Depression Visibility Wind Speed Wind Dir Waves Ship Positions

CMA CGM Butterfly

Last reported at 2015-Mar-02 03:11 UTC. Time now 2015-Mar-03 07:29 UTC.
Position N 35°47' E 014°38'.

Length 350 m; draft 10.7 m.

Type: Ship (hazmat cat A). MMSI: 636091420.

Date/timePositionNaut miles runAvg speedWind from/ knotsBaromVisibWave heightAir tempDewpointWater temp
2015-Mar-02 03:11N 35°47' E 014°38'2 2.7
2015-Mar-02 02:18N 35°45' E 014°40'810.7
2015-Mar-02 01:33N 35°37' E 014°41'7 0.6
2015-Mar-01 15:22N 35°40' E 014°34'173 4.5
2015-Feb-28 01:11N 37°45' E 012°03'1011.9
2015-Feb-28 00:22N 37°52' E 011°56'1012.0
2015-Feb-27 23:33N 38°00' E 011°49'32112.3
2015-Feb-26 21:23N 43°04' E 009°34'1011.5
2015-Feb-26 20:33N 43°13' E 009°27'1111.3
2015-Feb-26 19:33N 43°23' E 009°20'1211.9
2015-Feb-26 18:34N 43°34' E 009°13'1211.9
2015-Feb-26 17:33N 43°44' E 009°06'1212.0
2015-Feb-26 16:33N 43°55' E 008°59'1514.5
2015-Feb-26 15:33N 44°08' E 008°50'1515.0
2015-Feb-26 14:33N 44°22' E 008°42'5 4.7
2015-Feb-26 13:33N 44°25' E 008°47'0 0.0
2015-Feb-26 12:31N 44°25' E 008°47'0 0.0
2015-Feb-26 11:28N 44°25' E 008°47'0 0.0
2015-Feb-26 10:31N 44°25' E 008°47'0 0.1
2015-Feb-26 09:33N 44°25' E 008°47'0 0.0
2015-Feb-26 08:33N 44°25' E 008°47'0 0.0
2015-Feb-26 07:33N 44°25' E 008°47'0 0.0
2015-Feb-26 06:30N 44°25' E 008°47'0 0.0
2015-Feb-26 05:33N 44°25' E 008°47'0 0.0
2015-Feb-26 04:33N 44°25' E 008°47'0 0.0
2015-Feb-26 03:33N 44°25' E 008°47'0 0.0
2015-Feb-26 02:30N 44°25' E 008°47'0 0.0
2015-Feb-26 01:33N 44°25' E 008°47'0 0.0
2015-Feb-26 00:30N 44°25' E 008°47'0 0.0
2015-Feb-25 23:34N 44°25' E 008°47'0 0.0
2015-Feb-25 22:33N 44°25' E 008°47'0 0.1
2015-Feb-25 21:34N 44°25' E 008°47'0 0.1
2015-Feb-25 20:34N 44°25' E 008°47'0 0.0
2015-Feb-25 19:34N 44°25' E 008°47'0 0.0
2015-Feb-25 18:34N 44°25' E 008°47'0 0.0
2015-Feb-25 17:33N 44°25' E 008°47'0 0.0
2015-Feb-25 16:34N 44°25' E 008°47'0 0.0
2015-Feb-25 15:34N 44°25' E 008°47'0 0.0
2015-Feb-25 14:34N 44°25' E 008°47'0 0.0
2015-Feb-25 13:34N 44°25' E 008°47'0 0.0
2015-Feb-25 12:33N 44°25' E 008°47'0 0.0
2015-Feb-25 11:33N 44°25' E 008°47'0 0.0
2015-Feb-25 10:34N 44°25' E 008°47'0 0.0
2015-Feb-25 09:33N 44°25' E 008°47'0 0.2
2015-Feb-25 08:33N 44°25' E 008°47'7 7.4
2015-Feb-25 07:34N 44°18' E 008°42'1010.3
2015-Feb-25 06:33N 44°08' E 008°38'9 9.0
2015-Feb-25 05:33N 44°00' E 008°34'4 4.3
2015-Feb-25 04:34N 43°56' E 008°31'4 3.5
2015-Feb-25 03:33N 43°59' E 008°33'4 3.6
2015-Feb-25 02:33N 44°03' E 008°35'4 3.7
2015-Feb-25 01:34N 44°06' E 008°38'4 3.9
2015-Feb-25 00:34N 44°09' E 008°40'4 3.8
2015-Feb-24 23:34N 44°13' E 008°43'3 3.0
2015-Feb-24 22:34N 44°15' E 008°44'6 6.3
2015-Feb-24 21:33N 44°10' E 008°39'8 8.0
2015-Feb-24 20:33N 44°04' E 008°32'8 8.1
2015-Feb-24 19:33N 43°58' E 008°25'8 7.8
2015-Feb-24 18:34N 43°52' E 008°18'9 8.4
2015-Feb-24 17:32N 43°46' E 008°09'20 9.9
2015-Feb-24 15:32N 43°34' E 007°47'1110.5
2015-Feb-24 14:29N 43°28' E 007°34'1010.5
2015-Feb-24 13:33N 43°22' E 007°24'1111.1
2015-Feb-24 12:33N 43°15' E 007°12'1110.7
2015-Feb-24 11:33N 43°09' E 007°00'1110.6
2015-Feb-24 10:33N 43°02' E 006°49'1111.0
2015-Feb-24 09:33N 42°57' E 006°35'1110.8
2015-Feb-24 08:33N 42°53' E 006°22'1712.0
2015-Feb-24 07:09N 42°53' E 005°59'2512.6
2015-Feb-24 05:10N 43°01' E 005°26'913.0
2015-Feb-24 04:28N 43°04' E 005°15'1112.0
2015-Feb-24 03:33N 43°10' E 005°02'1111.4
2015-Feb-24 02:33N 43°21' E 004°58'6 6.4
2015-Feb-24 01:33N 43°25' E 004°51'0 0.0
2015-Feb-24 00:32N 43°25' E 004°51'0 0.0
2015-Feb-23 23:32N 43°25' E 004°51'0 0.0
2015-Feb-23 22:32N 43°25' E 004°51'0 0.0
2015-Feb-23 21:32N 43°25' E 004°51'0 0.0
2015-Feb-23 20:32N 43°25' E 004°51'0 0.0
2015-Feb-23 19:32N 43°25' E 004°51'0 0.0
2015-Feb-23 18:32N 43°25' E 004°51'0 0.0
2015-Feb-23 17:32N 43°25' E 004°51'0 0.0
2015-Feb-23 16:32N 43°25' E 004°51'0 0.0
2015-Feb-23 15:32N 43°25' E 004°51'0 0.0
2015-Feb-23 14:32N 43°25' E 004°51'0 0.0
2015-Feb-23 13:32N 43°25' E 004°51'0 0.0
2015-Feb-23 12:32N 43°25' E 004°51'0 0.0
2015-Feb-23 11:32N 43°25' E 004°51'0 0.0
2015-Feb-23 10:32N 43°25' E 004°51'0 0.0
2015-Feb-23 09:32N 43°25' E 004°51'0 0.0
2015-Feb-23 08:32N 43°25' E 004°51'0 0.0
2015-Feb-23 07:32N 43°25' E 004°51'0 0.0
2015-Feb-23 06:32N 43°25' E 004°51'0 0.0
2015-Feb-23 05:32N 43°25' E 004°51'0 0.0
2015-Feb-23 04:32N 43°25' E 004°51'0 0.0
2015-Feb-23 03:32N 43°25' E 004°51'0 0.0
2015-Feb-23 02:32N 43°25' E 004°51'0 0.0
2015-Feb-23 01:32N 43°25' E 004°51'0 0.0
2015-Feb-23 00:32N 43°25' E 004°51'0 0.0
2015-Feb-22 23:32N 43°25' E 004°51'0 0.0
2015-Feb-22 22:32N 43°25' E 004°51'0 0.0
2015-Feb-22 21:32N 43°25' E 004°51'0 0.0
2015-Feb-22 20:32N 43°25' E 004°51'0 0.0
2015-Feb-22 19:32N 43°25' E 004°51'0 0.0
2015-Feb-22 18:32N 43°25' E 004°51'0 0.0
2015-Feb-22 17:32N 43°25' E 004°51'0 0.0
2015-Feb-22 16:32N 43°25' E 004°51'0 0.0
2015-Feb-22 15:29N 43°25' E 004°51'0 0.0
2015-Feb-22 14:32N 43°25' E 004°51'0 0.0
2015-Feb-22 13:32N 43°25' E 004°51'0 0.0
2015-Feb-22 12:32N 43°25' E 004°51'0 0.0
2015-Feb-22 11:32N 43°25' E 004°51'0 0.0
2015-Feb-22 10:32N 43°25' E 004°51'0 0.0
2015-Feb-22 09:32N 43°25' E 004°51'0 0.0
2015-Feb-22 08:32N 43°25' E 004°51'0 0.0
2015-Feb-22 07:32N 43°25' E 004°51'0 0.0
2015-Feb-22 06:32N 43°25' E 004°51'0 0.0
2015-Feb-22 05:32N 43°25' E 004°51'0 0.0
2015-Feb-22 04:32N 43°25' E 004°51'0 0.0
2015-Feb-22 03:32N 43°25' E 004°51'0 0.0
2015-Feb-22 02:32N 43°25' E 004°51'1 0.6
2015-Feb-22 01:32N 43°25' E 004°50'0 0.0
2015-Feb-22 00:32N 43°25' E 004°50'0 0.0
2015-Feb-21 23:32N 43°25' E 004°50'0 0.0
2015-Feb-21 22:32N 43°25' E 004°50'0 0.0
2015-Feb-21 21:32N 43°25' E 004°50'0 0.0
2015-Feb-21 20:32N 43°25' E 004°50'0 0.0
2015-Feb-21 19:32N 43°25' E 004°50'0 0.0
2015-Feb-21 18:32N 43°25' E 004°50'1 0.6
2015-Feb-21 17:32N 43°25' E 004°51'0 0.0
2015-Feb-21 16:32N 43°25' E 004°51'0 0.0
2015-Feb-21 15:32N 43°25' E 004°51'0 0.0
2015-Feb-21 14:32N 43°25' E 004°51'0 0.0
2015-Feb-21 13:32N 43°25' E 004°51'0 0.0
2015-Feb-21 12:32N 43°25' E 004°51'0 0.0
2015-Feb-21 11:32N 43°25' E 004°51'0 0.0
2015-Feb-21 10:32N 43°25' E 004°51'0 0.0
2015-Feb-21 09:32N 43°25' E 004°51'0 0.0
2015-Feb-21 08:29N 43°25' E 004°51'0 0.0
2015-Feb-21 07:29N 43°25' E 004°51'0 0.0
2015-Feb-21 06:32N 43°25' E 004°51'0 0.0
2015-Feb-21 05:32N 43°25' E 004°51'0 0.1
2015-Feb-21 04:33N 43°25' E 004°51'4 4.0
2015-Feb-21 03:33N 43°24' E 004°56'9 9.4
2015-Feb-21 02:33N 43°15' E 005°01'1312.5
2015-Feb-21 01:33N 43°03' E 004°58'1311.9
2015-Feb-21 00:30N 42°55' E 004°44'2914.3
2015-Feb-20 22:30N 42°35' E 004°17'1713.9
2015-Feb-20 21:16N 42°22' E 004°02'1714.7
2015-Feb-20 20:05N 42°09' E 003°47'813.4
2015-Feb-20 19:29N 42°02' E 003°40'1514.0
2015-Feb-20 18:24N 41°51' E 003°26'1314.5
2015-Feb-20 17:30N 41°42' E 003°14'1514.4
2015-Feb-20 16:27N 41°31' E 003°00'1314.5
2015-Feb-20 15:33N 41°25' E 002°44'2612.6
2015-Feb-20 13:27N 41°19' E 002°10'2 1.5
2015-Feb-20 12:21N 41°21' E 002°10'0 0.0
2015-Feb-20 11:33N 41°21' E 002°10'0 0.0
2015-Feb-20 08:09N 41°21' E 002°10'0 0.0
2015-Feb-20 07:33N 41°21' E 002°10'0 0.0
2015-Feb-20 06:15N 41°21' E 002°10'0 0.0
2015-Feb-20 05:27N 41°21' E 002°10'0 0.0
2015-Feb-20 04:15N 41°21' E 002°10'  
Track history (hours):
 
Tides and Currents Weather Stations Pressure Air Temp Water Temp Dewpoint Dewpoint Depression Visibility Wind Speed Wind Dir Waves Ship Positions

CMA CGM Butterfly

Last reported at 2015-Mar-02 03:11 UTC. Time now 2015-Mar-03 07:29 UTC.
Position N 35°47' E 014°38'.

Length 350 m; draft 10.7 m.

Type: Ship (hazmat cat A). MMSI: 636091420.

Date/timePositionNaut miles runAvg speedWind from/ knotsBaromVisibWave heightAir tempDewpointWater temp
2015-Mar-02 03:11N 35°47' E 014°38'2 2.7
2015-Mar-02 02:18N 35°45' E 014°40'810.7
2015-Mar-02 01:33N 35°37' E 014°41'7 0.6
2015-Mar-01 15:22N 35°40' E 014°34'173 4.5
2015-Feb-28 01:11N 37°45' E 012°03'1011.9
2015-Feb-28 00:22N 37°52' E 011°56'1012.0
2015-Feb-27 23:33N 38°00' E 011°49'32112.3
2015-Feb-26 21:23N 43°04' E 009°34'1011.5
2015-Feb-26 20:33N 43°13' E 009°27'1111.3
2015-Feb-26 19:33N 43°23' E 009°20'1211.9
2015-Feb-26 18:34N 43°34' E 009°13'1211.9
2015-Feb-26 17:33N 43°44' E 009°06'1212.0
2015-Feb-26 16:33N 43°55' E 008°59'1514.5
2015-Feb-26 15:33N 44°08' E 008°50'1515.0
2015-Feb-26 14:33N 44°22' E 008°42'5 4.7
2015-Feb-26 13:33N 44°25' E 008°47'0 0.0
2015-Feb-26 12:31N 44°25' E 008°47'0 0.0
2015-Feb-26 11:28N 44°25' E 008°47'0 0.0
2015-Feb-26 10:31N 44°25' E 008°47'0 0.1
2015-Feb-26 09:33N 44°25' E 008°47'0 0.0
2015-Feb-26 08:33N 44°25' E 008°47'0 0.0
2015-Feb-26 07:33N 44°25' E 008°47'0 0.0
2015-Feb-26 06:30N 44°25' E 008°47'0 0.0
2015-Feb-26 05:33N 44°25' E 008°47'0 0.0
2015-Feb-26 04:33N 44°25' E 008°47'0 0.0
2015-Feb-26 03:33N 44°25' E 008°47'0 0.0
2015-Feb-26 02:30N 44°25' E 008°47'0 0.0
2015-Feb-26 01:33N 44°25' E 008°47'0 0.0
2015-Feb-26 00:30N 44°25' E 008°47'0 0.0
2015-Feb-25 23:34N 44°25' E 008°47'0 0.0
2015-Feb-25 22:33N 44°25' E 008°47'0 0.1
2015-Feb-25 21:34N 44°25' E 008°47'0 0.1
2015-Feb-25 20:34N 44°25' E 008°47'0 0.0
2015-Feb-25 19:34N 44°25' E 008°47'0 0.0
2015-Feb-25 18:34N 44°25' E 008°47'0 0.0
2015-Feb-25 17:33N 44°25' E 008°47'0 0.0
2015-Feb-25 16:34N 44°25' E 008°47'0 0.0
2015-Feb-25 15:34N 44°25' E 008°47'0 0.0
2015-Feb-25 14:34N 44°25' E 008°47'0 0.0
2015-Feb-25 13:34N 44°25' E 008°47'0 0.0
2015-Feb-25 12:33N 44°25' E 008°47'0 0.0
2015-Feb-25 11:33N 44°25' E 008°47'0 0.0
2015-Feb-25 10:34N 44°25' E 008°47'0 0.0
2015-Feb-25 09:33N 44°25' E 008°47'0 0.2
2015-Feb-25 08:33N 44°25' E 008°47'7 7.4
2015-Feb-25 07:34N 44°18' E 008°42'1010.3
2015-Feb-25 06:33N 44°08' E 008°38'9 9.0
2015-Feb-25 05:33N 44°00' E 008°34'4 4.3
2015-Feb-25 04:34N 43°56' E 008°31'4 3.5
2015-Feb-25 03:33N 43°59' E 008°33'4 3.6
2015-Feb-25 02:33N 44°03' E 008°35'4 3.7
2015-Feb-25 01:34N 44°06' E 008°38'4 3.9
2015-Feb-25 00:34N 44°09' E 008°40'4 3.8
2015-Feb-24 23:34N 44°13' E 008°43'3 3.0
2015-Feb-24 22:34N 44°15' E 008°44'6 6.3
2015-Feb-24 21:33N 44°10' E 008°39'8 8.0
2015-Feb-24 20:33N 44°04' E 008°32'8 8.1
2015-Feb-24 19:33N 43°58' E 008°25'8 7.8
2015-Feb-24 18:34N 43°52' E 008°18'9 8.4
2015-Feb-24 17:32N 43°46' E 008°09'20 9.9
2015-Feb-24 15:32N 43°34' E 007°47'1110.5
2015-Feb-24 14:29N 43°28' E 007°34'1010.5
2015-Feb-24 13:33N 43°22' E 007°24'1111.1
2015-Feb-24 12:33N 43°15' E 007°12'1110.7
2015-Feb-24 11:33N 43°09' E 007°00'1110.6
2015-Feb-24 10:33N 43°02' E 006°49'1111.0
2015-Feb-24 09:33N 42°57' E 006°35'1110.8
2015-Feb-24 08:33N 42°53' E 006°22'1712.0
2015-Feb-24 07:09N 42°53' E 005°59'2512.6
2015-Feb-24 05:10N 43°01' E 005°26'913.0
2015-Feb-24 04:28N 43°04' E 005°15'1112.0
2015-Feb-24 03:33N 43°10' E 005°02'1111.4
2015-Feb-24 02:33N 43°21' E 004°58'6 6.4
2015-Feb-24 01:33N 43°25' E 004°51'0 0.0
2015-Feb-24 00:32N 43°25' E 004°51'0 0.0
2015-Feb-23 23:32N 43°25' E 004°51'0 0.0
2015-Feb-23 22:32N 43°25' E 004°51'0 0.0
2015-Feb-23 21:32N 43°25' E 004°51'0 0.0
2015-Feb-23 20:32N 43°25' E 004°51'0 0.0
2015-Feb-23 19:32N 43°25' E 004°51'0 0.0
2015-Feb-23 18:32N 43°25' E 004°51'0 0.0
2015-Feb-23 17:32N 43°25' E 004°51'0 0.0
2015-Feb-23 16:32N 43°25' E 004°51'0 0.0
2015-Feb-23 15:32N 43°25' E 004°51'0 0.0
2015-Feb-23 14:32N 43°25' E 004°51'0 0.0
2015-Feb-23 13:32N 43°25' E 004°51'0 0.0
2015-Feb-23 12:32N 43°25' E 004°51'0 0.0
2015-Feb-23 11:32N 43°25' E 004°51'0 0.0
2015-Feb-23 10:32N 43°25' E 004°51'0 0.0
2015-Feb-23 09:32N 43°25' E 004°51'0 0.0
2015-Feb-23 08:32N 43°25' E 004°51'0 0.0
2015-Feb-23 07:32N 43°25' E 004°51'0 0.0
2015-Feb-23 06:32N 43°25' E 004°51'0 0.0
2015-Feb-23 05:32N 43°25' E 004°51'0 0.0
2015-Feb-23 04:32N 43°25' E 004°51'0 0.0
2015-Feb-23 03:32N 43°25' E 004°51'0 0.0
2015-Feb-23 02:32N 43°25' E 004°51'0 0.0
2015-Feb-23 01:32N 43°25' E 004°51'0 0.0
2015-Feb-23 00:32N 43°25' E 004°51'0 0.0
2015-Feb-22 23:32N 43°25' E 004°51'0 0.0
2015-Feb-22 22:32N 43°25' E 004°51'0 0.0
2015-Feb-22 21:32N 43°25' E 004°51'0 0.0
2015-Feb-22 20:32N 43°25' E 004°51'0 0.0
2015-Feb-22 19:32N 43°25' E 004°51'0 0.0
2015-Feb-22 18:32N 43°25' E 004°51'0 0.0
2015-Feb-22 17:32N 43°25' E 004°51'0 0.0
2015-Feb-22 16:32N 43°25' E 004°51'0 0.0
2015-Feb-22 15:29N 43°25' E 004°51'0 0.0
2015-Feb-22 14:32N 43°25' E 004°51'0 0.0
2015-Feb-22 13:32N 43°25' E 004°51'0 0.0
2015-Feb-22 12:32N 43°25' E 004°51'0 0.0
2015-Feb-22 11:32N 43°25' E 004°51'0 0.0
2015-Feb-22 10:32N 43°25' E 004°51'0 0.0
2015-Feb-22 09:32N 43°25' E 004°51'0 0.0
2015-Feb-22 08:32N 43°25' E 004°51'0 0.0
2015-Feb-22 07:32N 43°25' E 004°51'0 0.0
2015-Feb-22 06:32N 43°25' E 004°51'0 0.0
2015-Feb-22 05:32N 43°25' E 004°51'0 0.0
2015-Feb-22 04:32N 43°25' E 004°51'0 0.0
2015-Feb-22 03:32N 43°25' E 004°51'0 0.0
2015-Feb-22 02:32N 43°25' E 004°51'1 0.6
2015-Feb-22 01:32N 43°25' E 004°50'0 0.0
2015-Feb-22 00:32N 43°25' E 004°50'0 0.0
2015-Feb-21 23:32N 43°25' E 004°50'0 0.0
2015-Feb-21 22:32N 43°25' E 004°50'0 0.0
2015-Feb-21 21:32N 43°25' E 004°50'0 0.0
2015-Feb-21 20:32N 43°25' E 004°50'0 0.0
2015-Feb-21 19:32N 43°25' E 004°50'0 0.0
2015-Feb-21 18:32N 43°25' E 004°50'1 0.6
2015-Feb-21 17:32N 43°25' E 004°51'0 0.0
2015-Feb-21 16:32N 43°25' E 004°51'0 0.0
2015-Feb-21 15:32N 43°25' E 004°51'0 0.0
2015-Feb-21 14:32N 43°25' E 004°51'0 0.0
2015-Feb-21 13:32N 43°25' E 004°51'0 0.0
2015-Feb-21 12:32N 43°25' E 004°51'0 0.0
2015-Feb-21 11:32N 43°25' E 004°51'0 0.0
2015-Feb-21 10:32N 43°25' E 004°51'0 0.0
2015-Feb-21 09:32N 43°25' E 004°51'0 0.0
2015-Feb-21 08:29N 43°25' E 004°51'0 0.0
2015-Feb-21 07:29N 43°25' E 004°51'0 0.0
2015-Feb-21 06:32N 43°25' E 004°51'0 0.0
2015-Feb-21 05:32N 43°25' E 004°51'0 0.1
2015-Feb-21 04:33N 43°25' E 004°51'4 4.0
2015-Feb-21 03:33N 43°24' E 004°56'9 9.4
2015-Feb-21 02:33N 43°15' E 005°01'1312.5
2015-Feb-21 01:33N 43°03' E 004°58'1311.9
2015-Feb-21 00:30N 42°55' E 004°44'2914.3
2015-Feb-20 22:30N 42°35' E 004°17'1713.9
2015-Feb-20 21:16N 42°22' E 004°02'1714.7
2015-Feb-20 20:05N 42°09' E 003°47'813.4
2015-Feb-20 19:29N 42°02' E 003°40'1514.0
2015-Feb-20 18:24N 41°51' E 003°26'1314.5
2015-Feb-20 17:30N 41°42' E 003°14'1514.4
2015-Feb-20 16:27N 41°31' E 003°00'1314.5
2015-Feb-20 15:33N 41°25' E 002°44'2612.6
2015-Feb-20 13:27N 41°19' E 002°10'2 1.5
2015-Feb-20 12:21N 41°21' E 002°10'0 0.0
2015-Feb-20 11:33N 41°21' E 002°10'0 0.0
2015-Feb-20 08:09N 41°21' E 002°10'0 0.0
2015-Feb-20 07:33N 41°21' E 002°10'0 0.0
2015-Feb-20 06:15N 41°21' E 002°10'0 0.0
2015-Feb-20 05:27N 41°21' E 002°10'0 0.0
2015-Feb-20 04:15N 41°21' E 002°10'  

Dump ship's entire track history